Terminal Aerodrome Forecast
Issued by NWS Corpus Christi, TX

Home | Current Version | Previous Version | Text Only | Print | Product List | Glossary On
Versions: 1 2 3 4 5 6 7 8 9 10 11 12 13 14
000
FTUS44 KCRP 271120
TAFCRP
TAF
KCRP 271120Z 2712/2812 VRB04KT P6SM SCT017 BKN250
      TEMPO 2713/2717 -SHRA BKN025
     FM271700 09008KT P6SM VCTS SCT035CB
     FM272200 09012G16KT P6SM SCT040 BKN250
     FM280200 VRB06KT P6SM SCT035 BKN250=

USA.gov is the U.S. government's official web portal to all federal, state and local government web resources and services.